sensor_id;sensor_type;location;lat;lon;timestamp;pressure;altitude;pressure_sealevel;temperature;humidity
71465;BME280;59274;49.874;9.154;2023-08-21T00:01:42;100778.47;;;21.36;100.00
71465;BME280;59274;49.874;9.154;2023-08-21T00:04:07;100778.22;;;21.30;100.00
71465;BME280;59274;49.874;9.154;2023-08-21T00:09:00;100775.72;;;21.36;100.00
71465;BME280;59274;49.874;9.154;2023-08-21T00:11:25;100780.81;;;21.21;100.00
71465;BME280;59274;49.874;9.154;2023-08-21T00:13:51;100784.88;;;21.17;100.00
71465;BME280;59274;49.874;9.154;2023-08-21T00:16:17;100787.63;;;21.17;100.00
71465;BME280;59274;49.874;9.154;2023-08-21T00:18:43;100780.13;;;21.17;100.00
71465;BME280;59274;49.874;9.154;2023-08-21T00:21:08;100779.06;;;21.27;100.00
71465;BME280;59274;49.874;9.154;2023-08-21T00:23:34;100779.06;;;21.27;100.00
71465;BME280;59274;49.874;9.154;2023-08-21T00:25:59;100774.59;;;21.17;100.00
71465;BME280;59274;49.874;9.154;2023-08-21T00:28:25;100771.00;;;21.00;100.00
71465;BME280;59274;49.874;9.154;2023-08-21T00:30:50;100771.59;;;20.92;100.00
71465;BME280;59274;49.874;9.154;2023-08-21T00:33:15;100770.22;;;20.84;100.00
71465;BME280;59274;49.874;9.154;2023-08-21T00:35:42;100762.25;;;20.69;100.00
71465;BME280;59274;49.874;9.154;2023-08-21T00:38:08;100769.84;;;20.65;100.00
71465;BME280;59274;49.874;9.154;2023-08-21T00:40:33;100772.88;;;20.71;100.00
71465;BME280;59274;49.874;9.154;2023-08-21T00:42:59;100773.78;;;20.64;100.00
71465;BME280;59274;49.874;9.154;2023-08-21T00:45:24;100772.94;;;20.67;100.00
71465;BME280;59274;49.874;9.154;2023-08-21T00:47:50;100768.28;;;20.64;100.00
71465;BME280;59274;49.874;9.154;2023-08-21T00:50:16;100768.06;;;20.55;100.00
71465;BME280;59274;49.874;9.154;2023-08-21T00:52:44;100783.00;;;20.58;100.00
71465;BME280;59274;49.874;9.154;2023-08-21T00:55:13;100776.34;;;20.55;100.00
71465;BME280;59274;49.874;9.154;2023-08-21T00:57:39;100770.47;;;20.53;100.00
71465;BME280;59274;49.874;9.154;2023-08-21T01:00:05;100783.00;;;20.58;100.00
71465;BME280;59274;49.874;9.154;2023-08-21T01:02:31;100765.41;;;20.52;100.00
71465;BME280;59274;49.874;9.154;2023-08-21T01:04:56;100766.50;;;20.54;100.00
71465;BME280;59274;49.874;9.154;2023-08-21T01:07:22;100765.81;;;20.50;100.00
71465;BME280;59274;49.874;9.154;2023-08-21T01:15:00;100759.94;;;20.48;100.00
71465;BME280;59274;49.874;9.154;2023-08-21T01:17:33;100767.72;;;20.53;100.00
71465;BME280;59274;49.874;9.154;2023-08-21T01:20:01;100774.31;;;20.59;100.00
71465;BME280;59274;49.874;9.154;2023-08-21T01:22:35;100769.00;;;20.49;100.00
71465;BME280;59274;49.874;9.154;2023-08-21T01:25:01;100781.66;;;20.46;100.00
71465;BME280;59274;49.874;9.154;2023-08-21T01:27:27;100765.25;;;20.39;100.00
71465;BME280;59274;49.874;9.154;2023-08-21T01:29:53;100771.84;;;20.45;100.00
71465;BME280;59274;49.874;9.154;2023-08-21T01:35:10;100769.56;;;20.40;100.00
71465;BME280;59274;49.874;9.154;2023-08-21T01:37:37;100770.88;;;20.32;100.00
71465;BME280;59274;49.874;9.154;2023-08-21T01:40:04;100771.75;;;20.29;100.00
71465;BME280;59274;49.874;9.154;2023-08-21T01:42:29;100774.88;;;20.31;100.00
71465;BME280;59274;49.874;9.154;2023-08-21T01:44:54;100772.41;;;20.37;100.00
71465;BME280;59274;49.874;9.154;2023-08-21T01:47:20;100779.84;;;20.40;100.00
71465;BME280;59274;49.874;9.154;2023-08-21T01:49:45;100780.41;;;20.31;100.00
71465;BME280;59274;49.874;9.154;2023-08-21T01:52:11;100778.00;;;20.33;100.00
71465;BME280;59274;49.874;9.154;2023-08-21T01:54:36;100774.53;;;20.29;100.00
71465;BME280;59274;49.874;9.154;2023-08-21T01:57:02;100767.72;;;20.14;100.00
71465;BME280;59274;49.874;9.154;2023-08-21T01:59:28;100778.34;;;20.15;100.00
71465;BME280;59274;49.874;9.154;2023-08-21T02:01:53;100785.84;;;20.15;100.00
71465;BME280;59274;49.874;9.154;2023-08-21T02:04:19;100782.31;;;20.14;100.00
71465;BME280;59274;49.874;9.154;2023-08-21T02:06:44;100784.78;;;20.09;100.00
71465;BME280;59274;49.874;9.154;2023-08-21T02:09:10;100779.25;;;20.09;100.00
71465;BME280;59274;49.874;9.154;2023-08-21T02:11:35;100781.66;;;20.07;100.00
71465;BME280;59274;49.874;9.154;2023-08-21T02:14:01;100784.41;;;20.07;100.00
71465;BME280;59274;49.874;9.154;2023-08-21T02:16:27;100783.59;;;20.10;100.00
71465;BME280;59274;49.874;9.154;2023-08-21T02:18:52;100778.41;;;20.12;100.00
71465;BME280;59274;49.874;9.154;2023-08-21T02:21:18;100776.13;;;20.07;100.00
71465;BME280;59274;49.874;9.154;2023-08-21T02:23:43;100793.06;;;20.09;100.00
71465;BME280;59274;49.874;9.154;2023-08-21T02:26:09;100794.25;;;20.08;100.00
71465;BME280;59274;49.874;9.154;2023-08-21T02:28:35;100795.41;;;20.10;100.00
71465;BME280;59274;49.874;9.154;2023-08-21T02:31:00;100792.31;;;20.05;100.00
71465;BME280;59274;49.874;9.154;2023-08-21T02:33:26;100793.25;;;19.98;100.00
71465;BME280;59274;49.874;9.154;2023-08-21T02:35:51;100792.91;;;19.96;100.00
71465;BME280;59274;49.874;9.154;2023-08-21T02:38:16;100786.75;;;19.88;100.00
71465;BME280;59274;49.874;9.154;2023-08-21T02:40:42;100796.72;;;20.02;100.00
71465;BME280;59274;49.874;9.154;2023-08-21T02:43:07;100795.22;;;19.98;100.00
71465;BME280;59274;49.874;9.154;2023-08-21T02:45:33;100793.66;;;19.97;100.00
71465;BME280;59274;49.874;9.154;2023-08-21T02:47:58;100794.78;;;19.79;100.00
71465;BME280;59274;49.874;9.154;2023-08-21T02:50:24;100794.78;;;19.79;100.00
71465;BME280;59274;49.874;9.154;2023-08-21T02:52:50;100789.13;;;19.86;100.00
71465;BME280;59274;49.874;9.154;2023-08-21T02:55:15;100780.63;;;19.77;100.00
71465;BME280;59274;49.874;9.154;2023-08-21T02:57:41;100801.00;;;19.83;100.00
71465;BME280;59274;49.874;9.154;2023-08-21T03:00:07;100794.69;;;19.83;100.00
71465;BME280;59274;49.874;9.154;2023-08-21T03:02:33;100792.44;;;19.78;100.00
71465;BME280;59274;49.874;9.154;2023-08-21T03:04:59;100796.81;;;19.75;100.00
71465;BME280;59274;49.874;9.154;2023-08-21T03:07:25;100788.53;;;19.75;100.00
71465;BME280;59274;49.874;9.154;2023-08-21T03:09:50;100801.44;;;19.82;100.00
71465;BME280;59274;49.874;9.154;2023-08-21T03:12:16;100802.31;;;19.75;100.00
71465;BME280;59274;49.874;9.154;2023-08-21T03:14:42;100793.34;;;19.71;100.00
71465;BME280;59274;49.874;9.154;2023-08-21T03:17:10;100796.09;;;19.71;100.00
71465;BME280;59274;49.874;9.154;2023-08-21T03:19:35;100798.81;;;19.75;100.00
71465;BME280;59274;49.874;9.154;2023-08-21T03:22:01;100794.63;;;19.67;100.00
71465;BME280;59274;49.874;9.154;2023-08-21T03:24:26;100788.03;;;19.61;100.00
71465;BME280;59274;49.874;9.154;2023-08-21T03:26:51;100807.31;;;19.61;100.00
71465;BME280;59274;49.874;9.154;2023-08-21T03:29:17;100794.06;;;19.52;100.00
71465;BME280;59274;49.874;9.154;2023-08-21T03:31:42;100786.28;;;19.47;100.00
71465;BME280;59274;49.874;9.154;2023-08-21T03:34:08;100789.06;;;19.43;100.00
71465;BME280;59274;49.874;9.154;2023-08-21T03:36:34;100805.44;;;19.54;100.00
71465;BME280;59274;49.874;9.154;2023-08-21T03:39:02;100804.41;;;19.44;100.00
71465;BME280;59274;49.874;9.154;2023-08-21T03:41:27;100799.84;;;19.34;100.00
71465;BME280;59274;49.874;9.154;2023-08-21T03:43:53;100788.16;;;19.27;100.00
71465;BME280;59274;49.874;9.154;2023-08-21T03:46:19;100800.97;;;19.37;100.00
71465;BME280;59274;49.874;9.154;2023-08-21T03:48:44;100805.34;;;19.34;100.00
71465;BME280;59274;49.874;9.154;2023-08-21T03:51:10;100804.25;;;19.28;100.00
71465;BME280;59274;49.874;9.154;2023-08-21T03:53:35;100801.47;;;19.32;100.00
71465;BME280;59274;49.874;9.154;2023-08-21T03:56:01;100808.50;;;19.33;100.00
71465;BME280;59274;49.874;9.154;2023-08-21T03:58:26;100811.63;;;19.35;100.00
71465;BME280;59274;49.874;9.154;2023-08-21T04:00:54;100818.78;;;19.32;100.00
71465;BME280;59274;49.874;9.154;2023-08-21T04:03:20;100814.47;;;19.31;100.00
71465;BME280;59274;49.874;9.154;2023-08-21T04:05:46;100816.84;;;19.29;100.00
71465;BME280;59274;49.874;9.154;2023-08-21T04:08:12;100818.81;;;19.29;100.00
71465;BME280;59274;49.874;9.154;2023-08-21T04:10:38;100816.44;;;19.31;100.00
71465;BME280;59274;49.874;9.154;2023-08-21T04:13:07;100828.53;;;19.37;100.00
71465;BME280;59274;49.874;9.154;2023-08-21T04:15:33;100823.44;;;19.35;100.00
71465;BME280;59274;49.874;9.154;2023-08-21T04:18:00;100819.91;;;19.35;100.00
71465;BME280;59274;49.874;9.154;2023-08-21T04:20:25;100823.72;;;19.41;100.00
71465;BME280;59274;49.874;9.154;2023-08-21T04:22:51;100829.44;;;19.30;100.00
71465;BME280;59274;49.874;9.154;2023-08-21T04:25:16;100818.81;;;19.29;100.00
71465;BME280;59274;49.874;9.154;2023-08-21T04:27:42;100816.03;;;19.32;100.00
71465;BME280;59274;49.874;9.154;2023-08-21T04:30:09;100825.53;;;19.28;100.00
71465;BME280;59274;49.874;9.154;2023-08-21T04:32:34;100827.91;;;19.26;100.00
71465;BME280;59274;49.874;9.154;2023-08-21T04:35:00;100820.91;;;19.21;100.00
71465;BME280;59274;49.874;9.154;2023-08-21T04:37:26;100813.16;;;19.12;100.00
71465;BME280;59274;49.874;9.154;2023-08-21T04:39:54;100827.56;;;19.24;100.00
71465;BME280;59274;49.874;9.154;2023-08-21T04:42:21;100826.38;;;19.25;100.00
71465;BME280;59274;49.874;9.154;2023-08-21T04:44:46;100821.75;;;19.18;100.00
71465;BME280;59274;49.874;9.154;2023-08-21T04:47:21;100827.19;;;19.22;100.00
71465;BME280;59274;49.874;9.154;2023-08-21T04:49:50;100819.81;;;19.15;100.00
71465;BME280;59274;49.874;9.154;2023-08-21T04:52:16;100824.16;;;19.12;100.00
71465;BME280;59274;49.874;9.154;2023-08-21T04:54:41;100823.72;;;19.17;100.00
71465;BME280;59274;49.874;9.154;2023-08-21T04:57:07;100826.41;;;19.21;100.00
71465;BME280;59274;49.874;9.154;2023-08-21T04:59:32;100825.22;;;19.22;100.00
71465;BME280;59274;49.874;9.154;2023-08-21T05:01:58;100818.66;;;19.12;100.00
71465;BME280;59274;49.874;9.154;2023-08-21T05:04:23;100830.31;;;19.24;100.00
71465;BME280;59274;49.874;9.154;2023-08-21T05:06:49;100822.47;;;19.22;100.00
71465;BME280;59274;49.874;9.154;2023-08-21T05:09:14;100836.78;;;19.37;100.00
71465;BME280;59274;49.874;9.154;2023-08-21T05:11:40;100835.53;;;19.41;100.00
71465;BME280;59274;49.874;9.154;2023-08-21T05:14:05;100839.34;;;19.51;100.00
71465;BME280;59274;49.874;9.154;2023-08-21T05:16:31;100836.66;;;19.47;100.00
71465;BME280;59274;49.874;9.154;2023-08-21T05:18:57;100855.38;;;19.60;100.00
71465;BME280;59274;49.874;9.154;2023-08-21T05:21:22;100848.09;;;19.69;100.00
71465;BME280;59274;49.874;9.154;2023-08-21T05:23:47;100839.50;;;19.67;100.00
71465;BME280;59274;49.874;9.154;2023-08-21T05:26:13;100849.53;;;19.77;100.00
71465;BME280;59274;49.874;9.154;2023-08-21T05:28:38;100846.00;;;19.77;100.00
71465;BME280;59274;49.874;9.154;2023-08-21T05:31:04;100868.44;;;19.79;100.00
71465;BME280;59274;49.874;9.154;2023-08-21T05:33:29;100859.53;;;19.91;100.00
71465;BME280;59274;49.874;9.154;2023-08-21T05:35:56;100843.78;;;19.91;100.00
71465;BME280;59274;49.874;9.154;2023-08-21T05:38:23;100858.50;;;20.05;100.00
71465;BME280;59274;49.874;9.154;2023-08-21T05:40:48;100866.19;;;20.17;100.00
71465;BME280;59274;49.874;9.154;2023-08-21T05:43:16;100858.97;;;20.23;100.00
71465;BME280;59274;49.874;9.154;2023-08-21T05:45:41;100864.38;;;20.30;100.00
71465;BME280;59274;49.874;9.154;2023-08-21T05:48:07;100859.63;;;20.30;100.00
71465;BME280;59274;49.874;9.154;2023-08-21T05:50:32;100852.72;;;20.42;100.00
71465;BME280;59274;49.874;9.154;2023-08-21T05:52:58;100860.44;;;20.51;100.00
71465;BME280;59274;49.874;9.154;2023-08-21T05:55:26;100852.59;;;20.49;100.00
71465;BME280;59274;49.874;9.154;2023-08-21T05:57:52;100874.47;;;20.60;100.00
71465;BME280;59274;49.874;9.154;2023-08-21T06:00:17;100878.97;;;20.70;100.00
71465;BME280;59274;49.874;9.154;2023-08-21T06:02:43;100875.38;;;20.73;100.00
71465;BME280;59274;49.874;9.154;2023-08-21T06:05:08;100880.53;;;20.71;100.00
71465;BME280;59274;49.874;9.154;2023-08-21T06:07:34;100876.69;;;20.85;100.00
71465;BME280;59274;49.874;9.154;2023-08-21T06:09:59;100884.13;;;20.88;100.00
71465;BME280;59274;49.874;9.154;2023-08-21T06:12:25;100879.50;;;21.01;100.00
71465;BME280;59274;49.874;9.154;2023-08-21T06:14:50;100883.75;;;21.05;100.00
71465;BME280;59274;49.874;9.154;2023-08-21T06:17:16;100887.50;;;21.15;100.00
71465;BME280;59274;49.874;9.154;2023-08-21T06:19:44;100894.34;;;21.27;100.00
71465;BME280;59274;49.874;9.154;2023-08-21T06:22:10;100899.47;;;21.28;100.00
71465;BME280;59274;49.874;9.154;2023-08-21T06:24:35;100900.06;;;21.36;100.00
71465;BME280;59274;49.874;9.154;2023-08-21T06:27:00;100893.34;;;21.37;100.00
71465;BME280;59274;49.874;9.154;2023-08-21T06:29:26;100893.19;;;21.44;100.00
71465;BME280;59274;49.874;9.154;2023-08-21T06:31:51;100886.94;;;21.40;100.00
71465;BME280;59274;49.874;9.154;2023-08-21T06:34:17;100894.66;;;21.65;100.00
71465;BME280;59274;49.874;9.154;2023-08-21T06:36:42;100893.53;;;21.62;100.00
71465;BME280;59274;49.874;9.154;2023-08-21T06:39:08;100901.47;;;21.60;100.00
71465;BME280;59274;49.874;9.154;2023-08-21T06:41:33;100893.63;;;21.59;100.00
71465;BME280;59274;49.874;9.154;2023-08-21T06:43:58;100890.69;;;21.66;100.00
71465;BME280;59274;49.874;9.154;2023-08-21T06:46:24;100899.41;;;21.80;100.00
71465;BME280;59274;49.874;9.154;2023-08-21T06:48:49;100898.88;;;21.85;100.00
71465;BME280;59274;49.874;9.154;2023-08-21T06:51:17;100897.59;;;21.90;100.00
71465;BME280;59274;49.874;9.154;2023-08-21T06:53:43;100895.25;;;21.88;100.00
71465;BME280;59274;49.874;9.154;2023-08-21T06:56:08;100900.19;;;21.97;100.00
71465;BME280;59274;49.874;9.154;2023-08-21T06:58:34;100892.59;;;22.01;100.00
71465;BME280;59274;49.874;9.154;2023-08-21T07:01:02;100896.66;;;21.97;100.00
71465;BME280;59274;49.874;9.154;2023-08-21T07:03:28;100899.59;;;22.06;100.00
71465;BME280;59274;49.874;9.154;2023-08-21T07:05:57;100897.06;;;22.11;100.00
71465;BME280;59274;49.874;9.154;2023-08-21T07:08:23;100888.75;;;22.11;100.00
71465;BME280;59274;49.874;9.154;2023-08-21T07:10:49;100888.81;;;22.24;100.00
71465;BME280;59274;49.874;9.154;2023-08-21T07:13:15;100895.28;;;22.34;100.00
71465;BME280;59274;49.874;9.154;2023-08-21T07:15:40;100897.38;;;22.30;100.00
71465;BME280;59274;49.874;9.154;2023-08-21T07:18:06;100896.75;;;22.38;100.00
71465;BME280;59274;49.874;9.154;2023-08-21T07:20:31;100896.53;;;22.45;100.00
71465;BME280;59274;49.874;9.154;2023-08-21T07:22:57;100895.91;;;22.54;100.00
71465;BME280;59274;49.874;9.154;2023-08-21T07:25:23;100897.19;;;22.65;100.00
71465;BME280;59274;49.874;9.154;2023-08-21T07:27:50;100883.78;;;22.64;100.00
71465;BME280;59274;49.874;9.154;2023-08-21T07:30:16;100873.03;;;22.66;100.00
71465;BME280;59274;49.874;9.154;2023-08-21T07:32:43;100900.38;;;22.80;100.00
71465;BME280;59274;49.874;9.154;2023-08-21T07:35:08;100891.72;;;22.91;100.00
71465;BME280;59274;49.874;9.154;2023-08-21T07:37:34;100888.09;;;22.94;100.00
71465;BME280;59274;49.874;9.154;2023-08-21T07:39:59;100891.63;;;22.94;100.00
71465;BME280;59274;49.874;9.154;2023-08-21T07:42:28;100896.72;;;22.96;100.00
71465;BME280;59274;49.874;9.154;2023-08-21T07:44:53;100884.66;;;23.02;100.00
71465;BME280;59274;49.874;9.154;2023-08-21T07:47:19;100892.44;;;23.20;100.00
71465;BME280;59274;49.874;9.154;2023-08-21T07:49:44;100891.44;;;23.27;100.00
71465;BME280;59274;49.874;9.154;2023-08-21T07:52:09;100888.44;;;23.34;100.00
71465;BME280;59274;49.874;9.154;2023-08-21T07:54:35;100895.91;;;23.50;100.00
71465;BME280;59274;49.874;9.154;2023-08-21T07:57:01;100888.44;;;23.47;100.00
71465;BME280;59274;49.874;9.154;2023-08-21T07:59:27;100889.00;;;23.54;100.00
71465;BME280;59274;49.874;9.154;2023-08-21T08:01:52;100887.66;;;23.71;100.00
71465;BME280;59274;49.874;9.154;2023-08-21T08:04:18;100895.75;;;23.78;100.00
71465;BME280;59274;49.874;9.154;2023-08-21T08:06:43;100896.31;;;23.86;100.00
71465;BME280;59274;49.874;9.154;2023-08-21T08:09:09;100895.94;;;23.97;100.00
71465;BME280;59274;49.874;9.154;2023-08-21T08:11:34;100893.59;;;23.95;100.00
71465;BME280;59274;49.874;9.154;2023-08-21T08:14:00;100885.59;;;23.97;100.00
71465;BME280;59274;49.874;9.154;2023-08-21T08:16:25;100886.59;;;24.03;100.00
71465;BME280;59274;49.874;9.154;2023-08-21T08:18:51;100888.66;;;24.12;100.00
71465;BME280;59274;49.874;9.154;2023-08-21T08:21:16;100888.88;;;24.17;100.00
71465;BME280;59274;49.874;9.154;2023-08-21T08:23:42;100887.56;;;24.22;100.00
71465;BME280;59274;49.874;9.154;2023-08-21T08:26:08;100891.19;;;24.32;100.00
71465;BME280;59274;49.874;9.154;2023-08-21T08:28:34;100887.06;;;24.36;100.00
71465;BME280;59274;49.874;9.154;2023-08-21T08:31:00;100884.03;;;24.43;100.00
71465;BME280;59274;49.874;9.154;2023-08-21T08:33:26;100886.59;;;24.59;100.00
71465;BME280;59274;49.874;9.154;2023-08-21T08:35:51;100882.00;;;24.66;100.00
71465;BME280;59274;49.874;9.154;2023-08-21T08:38:18;100885.44;;;24.70;100.00
71465;BME280;59274;49.874;9.154;2023-08-21T08:40:45;100879.47;;;24.80;100.00
71465;BME280;59274;49.874;9.154;2023-08-21T08:43:12;100871.00;;;24.84;100.00
71465;BME280;59274;49.874;9.154;2023-08-21T08:45:40;100869.09;;;24.93;100.00
71465;BME280;59274;49.874;9.154;2023-08-21T08:48:06;100875.97;;;25.11;100.00
71465;BME280;59274;49.874;9.154;2023-08-21T08:50:33;100875.06;;;25.14;100.00
71465;BME280;59274;49.874;9.154;2023-08-21T08:52:59;100867.50;;;25.23;100.00
71465;BME280;59274;49.874;9.154;2023-08-21T08:55:25;100862.91;;;25.29;100.00
71465;BME280;59274;49.874;9.154;2023-08-21T08:57:52;100868.34;;;25.33;100.00
71465;BME280;59274;49.874;9.154;2023-08-21T09:00:18;100860.00;;;25.33;100.00
71465;BME280;59274;49.874;9.154;2023-08-21T09:02:45;100866.81;;;25.41;100.00
71465;BME280;59274;49.874;9.154;2023-08-21T09:05:10;100857.72;;;25.50;100.00
71465;BME280;59274;49.874;9.154;2023-08-21T09:07:36;100851.84;;;25.48;100.00
71465;BME280;59274;49.874;9.154;2023-08-21T09:10:02;100860.41;;;25.62;100.00
71465;BME280;59274;49.874;9.154;2023-08-21T09:12:31;100863.06;;;25.75;100.00
71465;BME280;59274;49.874;9.154;2023-08-21T09:14:58;100854.09;;;25.80;100.00
71465;BME280;59274;49.874;9.154;2023-08-21T09:17:25;100852.88;;;25.90;100.00
71465;BME280;59274;49.874;9.154;2023-08-21T09:19:51;100862.47;;;25.98;100.00
71465;BME280;59274;49.874;9.154;2023-08-21T09:22:18;100837.56;;;25.95;100.00
71465;BME280;59274;49.874;9.154;2023-08-21T09:25:19;100850.72;;;26.12;100.00
71465;BME280;59274;49.874;9.154;2023-08-21T09:27:44;100850.13;;;26.27;100.00
71465;BME280;59274;49.874;9.154;2023-08-21T09:30:11;100852.13;;;26.26;100.00
71465;BME280;59274;49.874;9.154;2023-08-21T09:32:57;100864.66;;;26.40;100.00
71465;BME280;59274;49.874;9.154;2023-08-21T09:35:25;100859.88;;;26.49;100.00
71465;BME280;59274;49.874;9.154;2023-08-21T09:37:51;100844.00;;;26.65;100.00
71465;BME280;59274;49.874;9.154;2023-08-21T09:40:22;100849.56;;;26.74;100.00
71465;BME280;59274;49.874;9.154;2023-08-21T09:42:52;100847.38;;;26.87;100.00
71465;BME280;59274;49.874;9.154;2023-08-21T09:45:26;100843.56;;;26.66;100.00
71465;BME280;59274;49.874;9.154;2023-08-21T09:47:52;100849.72;;;26.79;100.00
71465;BME280;59274;49.874;9.154;2023-08-21T09:50:18;100849.09;;;26.84;100.00
71465;BME280;59274;49.874;9.154;2023-08-21T09:52:44;100848.47;;;26.89;100.00
71465;BME280;59274;49.874;9.154;2023-08-21T09:55:12;100846.13;;;26.97;100.00
71465;BME280;59274;49.874;9.154;2023-08-21T09:57:39;100836.66;;;27.04;100.00
71465;BME280;59274;49.874;9.154;2023-08-21T10:00:04;100835.56;;;27.01;100.00
71465;BME280;59274;49.874;9.154;2023-08-21T10:02:46;100845.88;;;27.19;100.00
71465;BME280;59274;49.874;9.154;2023-08-21T10:05:16;100849.25;;;27.23;100.00
71465;BME280;59274;49.874;9.154;2023-08-21T10:07:43;100839.00;;;27.29;100.00
71465;BME280;59274;49.874;9.154;2023-08-21T10:10:11;100842.06;;;27.40;100.00
71465;BME280;59274;49.874;9.154;2023-08-21T10:12:37;100849.63;;;27.49;100.00
71465;BME280;59274;49.874;9.154;2023-08-21T10:15:02;100834.69;;;27.52;100.00
71465;BME280;59274;49.874;9.154;2023-08-21T10:17:30;100833.16;;;27.51;100.00
71465;BME280;59274;49.874;9.154;2023-08-21T10:20:02;100841.63;;;27.65;100.00
71465;BME280;59274;49.874;9.154;2023-08-21T10:22:49;100836.75;;;27.75;100.00
71465;BME280;59274;49.874;9.154;2023-08-21T10:25:25;100841.19;;;27.82;100.00
71465;BME280;59274;49.874;9.154;2023-08-21T10:27:55;100843.56;;;27.98;100.00
71465;BME280;59274;49.874;9.154;2023-08-21T10:30:28;100832.03;;;28.05;100.00
71465;BME280;59274;49.874;9.154;2023-08-21T10:32:57;100830.78;;;28.06;100.00
71465;BME280;59274;49.874;9.154;2023-08-21T10:35:30;100834.66;;;28.23;100.00
71465;BME280;59274;49.874;9.154;2023-08-21T10:40:38;100835.56;;;28.44;100.00
71465;BME280;59274;49.874;9.154;2023-08-21T10:43:04;100832.84;;;28.50;98.08
71465;BME280;59274;49.874;9.154;2023-08-21T10:45:30;100831.50;;;28.60;93.83
71465;BME280;59274;49.874;9.154;2023-08-21T10:47:59;100828.81;;;28.65;100.00
71465;BME280;59274;49.874;9.154;2023-08-21T10:50:25;100831.13;;;28.67;92.46
71465;BME280;59274;49.874;9.154;2023-08-21T10:52:52;100827.16;;;28.73;90.26
71465;BME280;59274;49.874;9.154;2023-08-21T10:55:19;100818.88;;;28.64;89.41
71465;BME280;59274;49.874;9.154;2023-08-21T10:57:49;100820.16;;;28.78;91.36
71465;BME280;59274;49.874;9.154;2023-08-21T11:00:17;100812.63;;;28.69;93.87
71465;BME280;59274;49.874;9.154;2023-08-21T11:02:44;100807.91;;;28.90;95.94
71465;BME280;59274;49.874;9.154;2023-08-21T11:05:11;100798.81;;;28.95;97.27
71465;BME280;59274;49.874;9.154;2023-08-21T11:07:41;100807.09;;;29.04;92.00
71465;BME280;59274;49.874;9.154;2023-08-21T11:10:11;100811.50;;;29.11;91.86
71465;BME280;59274;49.874;9.154;2023-08-21T11:12:38;100811.59;;;29.16;92.03
71465;BME280;59274;49.874;9.154;2023-08-21T11:15:18;100817.63;;;29.30;91.06
71465;BME280;59274;49.874;9.154;2023-08-21T11:17:54;100817.66;;;29.50;90.56
71465;BME280;59274;49.874;9.154;2023-08-21T11:20:20;100808.06;;;29.56;89.35
71465;BME280;59274;49.874;9.154;2023-08-21T11:22:45;100806.22;;;29.68;86.22
71465;BME280;59274;49.874;9.154;2023-08-21T11:25:11;100813.47;;;29.80;84.46
71465;BME280;59274;49.874;9.154;2023-08-21T11:27:37;100811.88;;;29.74;82.13
71465;BME280;59274;49.874;9.154;2023-08-21T11:30:04;100806.47;;;29.90;82.30
71465;BME280;59274;49.874;9.154;2023-08-21T11:32:29;100813.13;;;29.93;76.80
71465;BME280;59274;49.874;9.154;2023-08-21T11:34:56;100814.53;;;30.03;77.36
71465;BME280;59274;49.874;9.154;2023-08-21T11:37:24;100808.50;;;30.10;75.97
71465;BME280;59274;49.874;9.154;2023-08-21T11:39:51;100803.59;;;30.05;74.06
71465;BME280;59274;49.874;9.154;2023-08-21T11:42:19;100803.56;;;30.25;75.48
71465;BME280;59274;49.874;9.154;2023-08-21T11:44:51;100808.75;;;30.38;72.39
71465;BME280;59274;49.874;9.154;2023-08-21T11:47:19;100805.91;;;30.58;74.34
71465;BME280;59274;49.874;9.154;2023-08-21T11:49:46;100800.63;;;30.66;73.55
71465;BME280;59274;49.874;9.154;2023-08-21T11:52:17;100798.88;;;31.05;71.59
71465;BME280;59274;49.874;9.154;2023-08-21T11:54:43;100804.84;;;31.19;70.19
71465;BME280;59274;49.874;9.154;2023-08-21T11:57:12;100791.44;;;31.39;70.43
71465;BME280;59274;49.874;9.154;2023-08-21T11:59:38;100789.41;;;31.45;67.74
71465;BME280;59274;49.874;9.154;2023-08-21T12:02:14;100788.47;;;31.60;65.30
71465;BME280;59274;49.874;9.154;2023-08-21T12:04:41;100796.16;;;31.17;64.49
71465;BME280;59274;49.874;9.154;2023-08-21T12:07:06;100786.47;;;31.18;65.67
71465;BME280;59274;49.874;9.154;2023-08-21T12:09:32;100795.94;;;30.89;63.68
71465;BME280;59274;49.874;9.154;2023-08-21T12:11:57;100792.88;;;30.87;65.03
71465;BME280;59274;49.874;9.154;2023-08-21T12:14:23;100784.91;;;31.11;64.20
71465;BME280;59274;49.874;9.154;2023-08-21T12:16:48;100795.38;;;30.79;64.11
71465;BME280;59274;49.874;9.154;2023-08-21T12:19:14;100781.69;;;31.35;63.62
71465;BME280;59274;49.874;9.154;2023-08-21T12:21:39;100787.00;;;31.75;54.29
71465;BME280;59274;49.874;9.154;2023-08-21T12:24:05;100787.09;;;32.09;51.90
71465;BME280;59274;49.874;9.154;2023-08-21T12:26:32;100791.75;;;32.17;51.90
71465;BME280;59274;49.874;9.154;2023-08-21T12:28:58;100773.09;;;32.59;53.43
71465;BME280;59274;49.874;9.154;2023-08-21T12:31:23;100787.16;;;32.37;50.23
71465;BME280;59274;49.874;9.154;2023-08-21T12:33:49;100781.53;;;32.25;51.93
71465;BME280;59274;49.874;9.154;2023-08-21T12:36:14;100785.34;;;32.28;51.83
71465;BME280;59274;49.874;9.154;2023-08-21T12:38:40;100771.03;;;32.48;51.38
71465;BME280;59274;49.874;9.154;2023-08-21T12:41:05;100770.00;;;32.90;48.67
71465;BME280;59274;49.874;9.154;2023-08-21T12:43:31;100776.38;;;32.91;48.00
71465;BME280;59274;49.874;9.154;2023-08-21T12:45:57;100769.28;;;32.68;49.49
71465;BME280;59274;49.874;9.154;2023-08-21T12:48:23;100764.16;;;32.33;48.60
71465;BME280;59274;49.874;9.154;2023-08-21T12:50:48;100762.88;;;32.39;48.20
71465;BME280;59274;49.874;9.154;2023-08-21T12:53:14;100764.38;;;32.96;48.80